METAR Data
IDs: Format: Raw Decoded Include TAF

Data at: 0554 UTC 26 May 2022

ETOU 260459Z 25005KT 9999 FEW150 14/10 A3015 RMK A02A SLP209 52011